sensor_id;sensor_type;location;lat;lon;timestamp;pressure;altitude;pressure_sealevel;temperature;humidity
42887;BME280;29032;56.028;92.904;2023-08-06T00:03:28;98772.75;;;15.90;53.50
42887;BME280;29032;56.028;92.904;2023-08-06T00:08:30;98763.03;;;15.91;54.50
42887;BME280;29032;56.028;92.904;2023-08-06T00:13:34;98767.41;;;16.01;53.30
42887;BME280;29032;56.028;92.904;2023-08-06T00:18:36;98770.22;;;16.01;53.62
42887;BME280;29032;56.028;92.904;2023-08-06T00:23:38;98772.59;;;16.05;54.55
42887;BME280;29032;56.028;92.904;2023-08-06T00:28:41;98773.59;;;16.17;52.91
42887;BME280;29032;56.028;92.904;2023-08-06T00:33:43;98767.84;;;16.15;53.43
42887;BME280;29032;56.028;92.904;2023-08-06T00:38:45;98765.34;;;16.19;52.79
42887;BME280;29032;56.028;92.904;2023-08-06T00:43:49;98762.91;;;16.23;52.83
42887;BME280;29032;56.028;92.904;2023-08-06T00:48:51;98763.56;;;16.14;52.95
42887;BME280;29032;56.028;92.904;2023-08-06T00:53:53;98766.44;;;16.07;52.85
42887;BME280;29032;56.028;92.904;2023-08-06T00:58:58;98768.09;;;16.10;53.29
42887;BME280;29032;56.028;92.904;2023-08-06T01:04:00;98763.56;;;16.14;52.93
42887;BME280;29032;56.028;92.904;2023-08-06T01:09:10;98770.81;;;16.35;53.11
42887;BME280;29032;56.028;92.904;2023-08-06T01:14:26;98766.34;;;16.49;52.67
42887;BME280;29032;56.028;92.904;2023-08-06T01:19:30;98766.69;;;16.36;52.06
42887;BME280;29032;56.028;92.904;2023-08-06T01:24:33;98771.13;;;16.39;52.17
42887;BME280;29032;56.028;92.904;2023-08-06T01:29:41;98769.97;;;16.42;52.16
42887;BME280;29032;56.028;92.904;2023-08-06T01:34:47;98766.16;;;16.47;52.96
42887;BME280;29032;56.028;92.904;2023-08-06T01:39:53;98760.03;;;16.93;51.30
42887;BME280;29032;56.028;92.904;2023-08-06T01:44:56;98774.72;;;16.66;51.21
42887;BME280;29032;56.028;92.904;2023-08-06T01:49:58;98770.38;;;16.73;52.51
42887;BME280;29032;56.028;92.904;2023-08-06T01:55:01;98773.16;;;16.90;53.22
42887;BME280;29032;56.028;92.904;2023-08-06T02:00:04;98762.66;;;16.91;51.60
42887;BME280;29032;56.028;92.904;2023-08-06T02:05:14;98753.88;;;17.04;53.06
42887;BME280;29032;56.028;92.904;2023-08-06T02:10:18;98757.03;;;17.18;51.60
42887;BME280;29032;56.028;92.904;2023-08-06T02:15:20;98756.00;;;17.13;51.44
42887;BME280;29032;56.028;92.904;2023-08-06T02:20:22;98743.59;;;17.16;51.86
42887;BME280;29032;56.028;92.904;2023-08-06T02:25:25;98740.13;;;17.25;51.74
42887;BME280;29032;56.028;92.904;2023-08-06T02:30:27;98740.25;;;17.27;51.55
42887;BME280;29032;56.028;92.904;2023-08-06T02:35:29;98732.16;;;17.31;50.90
42887;BME280;29032;56.028;92.904;2023-08-06T02:40:33;98726.41;;;17.39;51.05
42887;BME280;29032;56.028;92.904;2023-08-06T02:45:35;98722.88;;;17.38;51.16
42887;BME280;29032;56.028;92.904;2023-08-06T02:50:40;98715.09;;;17.56;51.47
42887;BME280;29032;56.028;92.904;2023-08-06T02:55:47;98725.50;;;17.73;52.20
42887;BME280;29032;56.028;92.904;2023-08-06T03:01:01;98704.25;;;17.89;50.73
42887;BME280;29032;56.028;92.904;2023-08-06T03:06:03;98707.22;;;17.91;50.31
42887;BME280;29032;56.028;92.904;2023-08-06T03:11:19;98714.88;;;18.01;49.48
42887;BME280;29032;56.028;92.904;2023-08-06T03:16:23;98703.38;;;17.97;49.65
42887;BME280;29032;56.028;92.904;2023-08-06T03:21:26;98693.31;;;17.93;49.87
42887;BME280;29032;56.028;92.904;2023-08-06T03:26:29;98695.97;;;18.01;48.68
42887;BME280;29032;56.028;92.904;2023-08-06T03:31:32;98695.69;;;18.07;47.81
42887;BME280;29032;56.028;92.904;2023-08-06T03:36:35;98696.56;;;18.19;48.16
42887;BME280;29032;56.028;92.904;2023-08-06T03:41:38;98691.84;;;18.31;47.57
42887;BME280;29032;56.028;92.904;2023-08-06T03:46:40;98686.38;;;18.33;46.66
42887;BME280;29032;56.028;92.904;2023-08-06T03:51:44;98677.03;;;18.40;46.43
42887;BME280;29032;56.028;92.904;2023-08-06T03:56:47;98679.38;;;18.54;43.97
42887;BME280;29032;56.028;92.904;2023-08-06T04:01:51;98673.16;;;18.55;40.03
42887;BME280;29032;56.028;92.904;2023-08-06T04:06:53;98672.41;;;18.64;41.99
42887;BME280;29032;56.028;92.904;2023-08-06T04:11:59;98667.66;;;18.77;42.29
42887;BME280;29032;56.028;92.904;2023-08-06T04:17:01;98674.31;;;18.81;40.59
42887;BME280;29032;56.028;92.904;2023-08-06T04:22:03;98663.47;;;18.87;40.10
42887;BME280;29032;56.028;92.904;2023-08-06T04:27:08;98671.56;;;19.02;40.06
42887;BME280;29032;56.028;92.904;2023-08-06T04:32:10;98660.38;;;19.14;40.35
42887;BME280;29032;56.028;92.904;2023-08-06T04:37:17;98665.19;;;19.33;40.19
42887;BME280;29032;56.028;92.904;2023-08-06T04:42:20;98662.59;;;19.47;39.60
42887;BME280;29032;56.028;92.904;2023-08-06T04:47:22;98663.47;;;19.49;40.16
42887;BME280;29032;56.028;92.904;2023-08-06T04:52:24;98674.72;;;19.49;39.29
42887;BME280;29032;56.028;92.904;2023-08-06T04:57:28;98672.81;;;19.42;39.74
42887;BME280;29032;56.028;92.904;2023-08-06T05:02:30;98678.75;;;19.37;39.86
42887;BME280;29032;56.028;92.904;2023-08-06T05:07:32;98676.06;;;19.48;40.68
42887;BME280;29032;56.028;92.904;2023-08-06T12:04:59;98524.38;;;21.63;41.61
42887;BME280;29032;56.028;92.904;2023-08-06T12:10:01;98529.03;;;21.70;39.65
42887;BME280;29032;56.028;92.904;2023-08-06T12:15:04;98525.19;;;21.78;38.69
42887;BME280;29032;56.028;92.904;2023-08-06T12:20:08;98525.53;;;21.84;39.16
42887;BME280;29032;56.028;92.904;2023-08-06T12:25:11;98526.31;;;21.72;39.50
42887;BME280;29032;56.028;92.904;2023-08-06T12:30:13;98520.09;;;21.62;39.42
42887;BME280;29032;56.028;92.904;2023-08-06T12:35:17;98530.25;;;21.67;38.69
42887;BME280;29032;56.028;92.904;2023-08-06T12:40:19;98530.53;;;21.60;38.92
42887;BME280;29032;56.028;92.904;2023-08-06T12:45:21;98528.81;;;21.55;40.27
42887;BME280;29032;56.028;92.904;2023-08-06T12:50:25;98534.72;;;21.59;39.89
42887;BME280;29032;56.028;92.904;2023-08-06T12:55:27;98530.25;;;21.42;39.59
42887;BME280;29032;56.028;92.904;2023-08-06T13:00:29;98529.66;;;21.32;39.20
42887;BME280;29032;56.028;92.904;2023-08-06T13:05:33;98538.63;;;21.28;39.74
42887;BME280;29032;56.028;92.904;2023-08-06T13:10:35;98531.31;;;21.11;40.01
42887;BME280;29032;56.028;92.904;2023-08-06T13:15:37;98533.41;;;20.99;40.02
42887;BME280;29032;56.028;92.904;2023-08-06T13:20:41;98535.34;;;20.97;40.52
42887;BME280;29032;56.028;92.904;2023-08-06T13:25:43;98541.03;;;20.85;39.77
42887;BME280;29032;56.028;92.904;2023-08-06T13:30:45;98539.31;;;20.80;40.17
42887;BME280;29032;56.028;92.904;2023-08-06T13:35:49;98540.78;;;20.81;41.09
42887;BME280;29032;56.028;92.904;2023-08-06T13:40:50;98537.09;;;20.66;40.68
42887;BME280;29032;56.028;92.904;2023-08-06T13:45:52;98542.50;;;20.51;40.48
42887;BME280;29032;56.028;92.904;2023-08-06T13:50:56;98541.13;;;20.40;40.98
42887;BME280;29032;56.028;92.904;2023-08-06T13:55:58;98559.53;;;20.29;41.78
42887;BME280;29032;56.028;92.904;2023-08-06T14:01:00;98554.47;;;20.28;42.43
42887;BME280;29032;56.028;92.904;2023-08-06T14:06:04;98560.38;;;20.32;41.60
42887;BME280;29032;56.028;92.904;2023-08-06T14:11:06;98553.72;;;20.16;42.07
42887;BME280;29032;56.028;92.904;2023-08-06T14:16:08;98551.47;;;20.02;42.45
42887;BME280;29032;56.028;92.904;2023-08-06T14:21:11;98561.13;;;19.99;43.07
42887;BME280;29032;56.028;92.904;2023-08-06T14:26:14;98550.69;;;19.90;42.70
42887;BME280;29032;56.028;92.904;2023-08-06T14:31:15;98551.66;;;19.83;42.92
42887;BME280;29032;56.028;92.904;2023-08-06T14:36:19;98552.88;;;19.80;43.43
42887;BME280;29032;56.028;92.904;2023-08-06T14:41:21;98553.28;;;19.65;43.07
42887;BME280;29032;56.028;92.904;2023-08-06T14:46:23;98557.22;;;19.60;43.13
42887;BME280;29032;56.028;92.904;2023-08-06T14:51:27;98554.53;;;19.62;43.53
42887;BME280;29032;56.028;92.904;2023-08-06T14:56:29;98546.63;;;19.48;43.48
42887;BME280;29032;56.028;92.904;2023-08-06T15:01:31;98545.03;;;19.45;44.18
42887;BME280;29032;56.028;92.904;2023-08-06T15:06:34;98543.38;;;19.42;43.95
42887;BME280;29032;56.028;92.904;2023-08-06T15:11:36;98541.00;;;19.27;44.29
42887;BME280;29032;56.028;92.904;2023-08-06T15:16:38;98540.47;;;19.19;44.65
42887;BME280;29032;56.028;92.904;2023-08-06T15:21:42;98536.19;;;19.18;44.89
42887;BME280;29032;56.028;92.904;2023-08-06T15:26:44;98527.75;;;18.96;45.36
42887;BME280;29032;56.028;92.904;2023-08-06T15:31:46;98526.94;;;18.84;45.45
42887;BME280;29032;56.028;92.904;2023-08-06T15:36:49;98529.00;;;18.84;45.74
42887;BME280;29032;56.028;92.904;2023-08-06T15:41:51;98523.44;;;18.74;46.70
42887;BME280;29032;56.028;92.904;2023-08-06T15:46:53;98523.56;;;18.76;46.35
42887;BME280;29032;56.028;92.904;2023-08-06T15:51:57;98530.78;;;18.79;46.82
42887;BME280;29032;56.028;92.904;2023-08-06T15:56:59;98520.34;;;18.70;47.59
42887;BME280;29032;56.028;92.904;2023-08-06T16:02:01;98521.41;;;18.65;46.42
42887;BME280;29032;56.028;92.904;2023-08-06T16:07:05;98523.16;;;18.70;47.34
42887;BME280;29032;56.028;92.904;2023-08-06T16:12:07;98527.03;;;18.65;47.63
42887;BME280;29032;56.028;92.904;2023-08-06T16:17:09;98510.03;;;18.63;47.86
42887;BME280;29032;56.028;92.904;2023-08-06T16:22:12;98517.25;;;18.66;47.82
42887;BME280;29032;56.028;92.904;2023-08-06T16:27:14;98518.03;;;18.57;48.45
42887;BME280;29032;56.028;92.904;2023-08-06T16:32:16;98513.75;;;18.56;48.32
42887;BME280;29032;56.028;92.904;2023-08-06T16:37:20;98506.94;;;18.59;48.48
42887;BME280;29032;56.028;92.904;2023-08-06T16:42:22;98510.38;;;18.47;48.76
42887;BME280;29032;56.028;92.904;2023-08-06T16:47:24;98510.16;;;18.34;48.77
42887;BME280;29032;56.028;92.904;2023-08-06T16:52:27;98508.84;;;18.25;49.44
42887;BME280;29032;56.028;92.904;2023-08-06T16:57:29;98500.03;;;18.09;49.71
42887;BME280;29032;56.028;92.904;2023-08-06T17:02:31;98503.16;;;18.04;50.12
42887;BME280;29032;56.028;92.904;2023-08-06T17:07:35;98504.91;;;18.09;50.16
42887;BME280;29032;56.028;92.904;2023-08-06T17:12:37;98503.78;;;17.92;50.36
42887;BME280;29032;56.028;92.904;2023-08-06T17:17:39;98504.81;;;17.87;50.92
42887;BME280;29032;56.028;92.904;2023-08-06T17:22:42;98498.03;;;17.90;49.78
42887;BME280;29032;56.028;92.904;2023-08-06T17:27:44;98496.09;;;17.93;49.87
42887;BME280;29032;56.028;92.904;2023-08-06T17:32:46;98502.09;;;18.09;50.28
42887;BME280;29032;56.028;92.904;2023-08-06T17:37:50;98494.66;;;18.23;49.98
42887;BME280;29032;56.028;92.904;2023-08-06T17:42:52;98496.16;;;18.24;50.44
42887;BME280;29032;56.028;92.904;2023-08-06T17:47:54;98492.44;;;18.31;49.58
42887;BME280;29032;56.028;92.904;2023-08-06T17:52:58;98484.81;;;18.43;48.79
42887;BME280;29032;56.028;92.904;2023-08-06T17:58:00;98479.06;;;18.41;48.44
42887;BME280;29032;56.028;92.904;2023-08-06T18:03:02;98478.00;;;18.46;48.94
42887;BME280;29032;56.028;92.904;2023-08-06T18:08:06;98473.38;;;18.51;48.21
42887;BME280;29032;56.028;92.904;2023-08-06T18:13:08;98468.88;;;18.36;48.58
42887;BME280;29032;56.028;92.904;2023-08-06T18:18:10;98463.03;;;18.23;49.67
42887;BME280;29032;56.028;92.904;2023-08-06T18:23:14;98456.38;;;18.28;50.15
42887;BME280;29032;56.028;92.904;2023-08-06T18:28:16;98462.59;;;18.26;48.82
42887;BME280;29032;56.028;92.904;2023-08-06T18:33:18;98462.47;;;18.24;47.95
42887;BME280;29032;56.028;92.904;2023-08-06T18:38:21;98465.84;;;18.23;47.71
42887;BME280;29032;56.028;92.904;2023-08-06T18:43:23;98463.13;;;18.03;48.43
42887;BME280;29032;56.028;92.904;2023-08-06T18:48:25;98449.66;;;18.02;48.29
42887;BME280;29032;56.028;92.904;2023-08-06T18:53:29;98462.06;;;18.08;49.06
42887;BME280;29032;56.028;92.904;2023-08-06T18:58:31;98444.22;;;18.04;48.75
42887;BME280;29032;56.028;92.904;2023-08-06T19:03:33;98450.69;;;18.06;48.42
42887;BME280;29032;56.028;92.904;2023-08-06T19:08:36;98458.94;;;18.14;48.77
42887;BME280;29032;56.028;92.904;2023-08-06T19:13:38;98446.88;;;18.02;48.50
42887;BME280;29032;56.028;92.904;2023-08-06T19:18:40;98447.03;;;17.94;48.52
42887;BME280;29032;56.028;92.904;2023-08-06T19:23:43;98453.25;;;17.92;48.70
42887;BME280;29032;56.028;92.904;2023-08-06T19:28:46;98448.44;;;17.83;48.74
42887;BME280;29032;56.028;92.904;2023-08-06T19:33:47;98445.78;;;17.76;49.55
42887;BME280;29032;56.028;92.904;2023-08-06T19:38:51;98446.66;;;17.78;49.30
42887;BME280;29032;56.028;92.904;2023-08-06T19:43:53;98450.06;;;17.67;49.64
42887;BME280;29032;56.028;92.904;2023-08-06T19:48:55;98441.97;;;17.52;50.13
42887;BME280;29032;56.028;92.904;2023-08-06T19:53:59;98436.50;;;17.54;50.41
42887;BME280;29032;56.028;92.904;2023-08-06T19:59:01;98444.50;;;17.48;49.79
42887;BME280;29032;56.028;92.904;2023-08-06T20:04:03;98445.97;;;17.39;49.98
42887;BME280;29032;56.028;92.904;2023-08-06T20:09:07;98447.16;;;17.36;50.22
42887;BME280;29032;56.028;92.904;2023-08-06T20:14:09;98438.94;;;17.19;50.66
42887;BME280;29032;56.028;92.904;2023-08-06T20:19:11;98443.94;;;17.20;51.61
42887;BME280;29032;56.028;92.904;2023-08-06T20:24:14;98439.94;;;17.23;51.36
42887;BME280;29032;56.028;92.904;2023-08-06T20:29:16;98440.25;;;17.08;51.70
42887;BME280;29032;56.028;92.904;2023-08-06T20:34:18;98443.03;;;17.08;51.24
42887;BME280;29032;56.028;92.904;2023-08-06T20:39:22;98436.72;;;17.07;51.10
42887;BME280;29032;56.028;92.904;2023-08-06T20:44:24;98430.81;;;16.94;52.25
42887;BME280;29032;56.028;92.904;2023-08-06T20:49:26;98434.19;;;16.92;52.14
42887;BME280;29032;56.028;92.904;2023-08-06T20:54:29;98428.28;;;16.78;52.54
42887;BME280;29032;56.028;92.904;2023-08-06T20:59:31;98423.50;;;16.52;53.99
42887;BME280;29032;56.028;92.904;2023-08-06T21:04:33;98423.63;;;16.44;53.54
42887;BME280;29032;56.028;92.904;2023-08-06T21:09:37;98422.19;;;16.53;52.76
42887;BME280;29032;56.028;92.904;2023-08-06T21:14:39;98425.38;;;16.40;53.34
42887;BME280;29032;56.028;92.904;2023-08-06T21:19:41;98427.97;;;16.18;53.72
42887;BME280;29032;56.028;92.904;2023-08-06T21:24:44;98420.53;;;15.94;54.42
42887;BME280;29032;56.028;92.904;2023-08-06T21:29:46;98428.34;;;15.68;54.88
42887;BME280;29032;56.028;92.904;2023-08-06T21:34:48;98429.16;;;15.79;54.44
42887;BME280;29032;56.028;92.904;2023-08-06T21:39:52;98423.63;;;15.98;54.28
42887;BME280;29032;56.028;92.904;2023-08-06T21:44:54;98414.34;;;15.95;54.53
42887;BME280;29032;56.028;92.904;2023-08-06T21:49:56;98420.47;;;15.84;54.86
42887;BME280;29032;56.028;92.904;2023-08-06T21:54:59;98422.84;;;15.78;55.33
42887;BME280;29032;56.028;92.904;2023-08-06T22:00:01;98415.19;;;15.61;55.49
42887;BME280;29032;56.028;92.904;2023-08-06T22:05:04;98417.16;;;15.68;55.82
42887;BME280;29032;56.028;92.904;2023-08-06T22:10:08;98425.53;;;15.68;55.55
42887;BME280;29032;56.028;92.904;2023-08-06T22:15:10;98414.06;;;15.64;55.78
42887;BME280;29032;56.028;92.904;2023-08-06T22:20:12;98410.81;;;15.68;55.94
42887;BME280;29032;56.028;92.904;2023-08-06T22:25:16;98415.19;;;15.79;55.50
42887;BME280;29032;56.028;92.904;2023-08-06T22:30:18;98404.94;;;15.64;55.13
42887;BME280;29032;56.028;92.904;2023-08-06T22:35:20;98408.66;;;15.49;55.75
42887;BME280;29032;56.028;92.904;2023-08-06T22:40:24;98405.84;;;15.49;55.60
42887;BME280;29032;56.028;92.904;2023-08-06T22:45:26;98406.06;;;15.34;56.41
42887;BME280;29032;56.028;92.904;2023-08-06T22:50:28;98403.75;;;15.40;55.24
42887;BME280;29032;56.028;92.904;2023-08-06T22:55:31;98405.34;;;15.60;54.82
42887;BME280;29032;56.028;92.904;2023-08-06T23:00:33;98409.59;;;15.61;54.96
42887;BME280;29032;56.028;92.904;2023-08-06T23:05:35;98402.69;;;15.62;55.50
42887;BME280;29032;56.028;92.904;2023-08-06T23:10:39;98404.41;;;15.75;54.40
42887;BME280;29032;56.028;92.904;2023-08-06T23:15:41;98403.53;;;15.72;55.27
42887;BME280;29032;56.028;92.904;2023-08-06T23:20:43;98396.94;;;15.78;54.56
42887;BME280;29032;56.028;92.904;2023-08-06T23:25:47;98396.22;;;15.87;54.29
42887;BME280;29032;56.028;92.904;2023-08-06T23:30:49;98406.63;;;15.77;54.27
42887;BME280;29032;56.028;92.904;2023-08-06T23:35:51;98404.00;;;15.79;54.30
42887;BME280;29032;56.028;92.904;2023-08-06T23:40:55;98398.16;;;15.94;54.12
42887;BME280;29032;56.028;92.904;2023-08-06T23:45:57;98404.16;;;15.90;54.02
42887;BME280;29032;56.028;92.904;2023-08-06T23:50:59;98400.97;;;15.94;53.92
42887;BME280;29032;56.028;92.904;2023-08-06T23:56:02;98405.66;;;15.91;54.19
